createdAt,value
2022-08-19T00:00:26.135Z,17.17
2022-08-19T00:03:29.157Z,20.15
2022-08-19T00:06:32.711Z,21.85
2022-08-19T00:09:36.634Z,21.63
2022-08-19T00:12:40.261Z,21.73
2022-08-19T00:15:51.318Z,19.40
2022-08-19T00:18:54.529Z,23.05
2022-08-19T00:21:57.501Z,21.95
2022-08-19T00:25:00.681Z,18.45
2022-08-19T00:28:06.341Z,18.55
2022-08-19T00:31:11.296Z,19.20
2022-08-19T00:34:16.189Z,21.58
2022-08-19T00:37:19.141Z,22.23
2022-08-19T00:40:22.672Z,18.48
2022-08-19T00:43:28.219Z,27.23
2022-08-19T00:46:33.744Z,24.05
2022-08-19T00:49:41.714Z,24.50
2022-08-19T00:52:49.648Z,24.23
2022-08-19T00:55:55.697Z,24.00
2022-08-19T00:59:00.865Z,20.50
2022-08-19T01:02:05.982Z,21.25
2022-08-19T01:05:13.662Z,23.48
2022-08-19T01:08:19.828Z,26.77
2022-08-19T01:11:23.050Z,23.83
2022-08-19T01:14:26.968Z,23.50
2022-08-19T01:17:31.865Z,21.33
2022-08-19T01:20:35.402Z,20.73
2022-08-19T01:23:45.358Z,21.27
2022-08-19T01:26:50.119Z,20.92
2022-08-19T01:29:54.016Z,22.13
2022-08-19T01:32:57.663Z,24.17
2022-08-19T01:36:08.390Z,20.90
2022-08-19T01:39:16.599Z,22.73
2022-08-19T01:42:20.131Z,20.50
2022-08-19T01:45:35.444Z,23.60
2022-08-19T01:48:41.413Z,25.80
2022-08-19T01:51:44.401Z,22.33
2022-08-19T01:54:48.750Z,23.38
2022-08-19T01:57:56.554Z,28.83
2022-08-19T02:01:00.675Z,25.33
2022-08-19T02:04:04.605Z,23.05
2022-08-19T02:07:08.894Z,23.40
2022-08-19T02:10:19.666Z,21.17
2022-08-19T02:13:26.233Z,23.00
2022-08-19T02:16:31.256Z,24.45
2022-08-19T02:19:34.707Z,25.05
2022-08-19T02:22:37.752Z,24.38
2022-08-19T02:25:43.236Z,23.73
2022-08-19T02:28:46.667Z,28.00
2022-08-19T02:31:49.877Z,22.38
2022-08-19T02:34:53.203Z,23.35
2022-08-19T02:38:13.604Z,20.85
2022-08-19T02:41:21.172Z,21.48
2022-08-19T02:44:31.603Z,21.50
2022-08-19T02:47:35.766Z,24.00
2022-08-19T02:50:40.507Z,24.92
2022-08-19T02:53:55.808Z,22.13
2022-08-19T02:57:00.710Z,23.35
2022-08-19T03:00:08.887Z,21.98
2022-08-19T03:03:12.388Z,24.40
2022-08-19T03:06:18.637Z,27.48
2022-08-19T03:09:22.353Z,23.80
2022-08-19T03:12:26.882Z,23.45
2022-08-19T03:15:30.004Z,23.40
2022-08-19T03:18:32.992Z,23.92
2022-08-19T03:21:37.404Z,25.52
2022-08-19T03:24:41.338Z,22.85
2022-08-19T03:27:46.882Z,23.20
2022-08-19T03:31:01.801Z,20.83
2022-08-19T03:34:05.095Z,19.42
2022-08-19T03:37:13.900Z,22.40
2022-08-19T03:40:17.093Z,23.10
2022-08-19T03:43:22.072Z,22.08
2022-08-19T03:46:29.187Z,22.88
2022-08-19T03:49:35.995Z,24.77
2022-08-19T03:52:40.383Z,25.30
2022-08-19T03:55:49.939Z,24.70
2022-08-19T03:58:54.523Z,26.00
2022-08-19T04:02:01.376Z,26.05
2022-08-19T04:05:04.635Z,23.65
2022-08-19T04:08:11.964Z,27.75
2022-08-19T04:11:19.339Z,27.65
2022-08-19T04:14:26.493Z,24.52
2022-08-19T04:17:29.541Z,24.05
2022-08-19T04:20:32.903Z,20.48
2022-08-19T04:23:37.102Z,22.35
2022-08-19T04:26:48.774Z,22.65
2022-08-19T04:29:56.016Z,22.23
2022-08-19T04:32:58.967Z,23.48
2022-08-19T04:36:01.953Z,24.35
2022-08-19T04:39:09.166Z,21.55
2022-08-19T04:42:30.907Z,22.42
2022-08-19T04:45:39.491Z,23.20
2022-08-19T04:48:49.481Z,22.98
2022-08-19T04:51:55.149Z,23.48
2022-08-19T04:54:58.113Z,23.80
2022-08-19T04:58:01.047Z,22.50
2022-08-19T05:01:06.874Z,23.52
2022-08-19T05:04:09.903Z,21.60
2022-08-19T05:07:13.752Z,20.80
2022-08-19T05:10:16.792Z,22.45
2022-08-19T05:13:21.367Z,24.20
2022-08-19T05:16:28.161Z,23.23
2022-08-19T05:19:48.441Z,25.17
2022-08-19T05:22:51.477Z,22.30
2022-08-19T05:25:54.556Z,21.88
2022-08-19T05:28:57.800Z,23.38
2022-08-19T05:32:03.428Z,21.35
2022-08-19T05:35:08.015Z,20.67
2022-08-19T05:38:12.122Z,23.55
2022-08-19T05:41:17.510Z,21.15
2022-08-19T05:44:22.653Z,23.05
2022-08-19T05:47:26.954Z,23.58
2022-08-19T05:50:30.872Z,21.50
2022-08-19T05:53:34.592Z,22.63
2022-08-19T05:56:40.680Z,21.30
2022-08-19T05:59:46.671Z,21.73
2022-08-19T06:02:52.073Z,24.75
2022-08-19T06:05:56.001Z,22.40
2022-08-19T06:08:59.001Z,24.60
2022-08-19T06:12:03.551Z,24.88
2022-08-19T06:15:11.120Z,24.45
2022-08-19T06:18:16.440Z,24.38
2022-08-19T06:21:21.054Z,22.55
2022-08-19T06:24:27.011Z,24.05
2022-08-19T06:27:31.774Z,24.00
2022-08-19T06:30:34.778Z,24.63
2022-08-19T06:33:40.754Z,26.35
2022-08-19T06:36:48.142Z,22.98
2022-08-19T06:39:51.950Z,22.83
2022-08-19T06:42:57.267Z,22.67
2022-08-19T06:46:02.057Z,26.02
2022-08-19T06:49:07.300Z,25.40
2022-08-19T06:52:15.283Z,23.20
2022-08-19T06:55:18.501Z,24.73
2022-08-19T06:58:22.229Z,27.02
2022-08-19T07:01:25.473Z,27.00
2022-08-19T07:04:33.803Z,25.30
2022-08-19T07:07:37.002Z,28.63
2022-08-19T07:10:44.900Z,29.27
2022-08-19T07:13:49.555Z,25.75
2022-08-19T07:16:59.044Z,25.27
2022-08-19T07:20:07.008Z,29.63
2022-08-19T07:23:16.576Z,26.13
2022-08-19T07:26:27.948Z,24.70
2022-08-19T07:29:34.330Z,25.77
2022-08-19T07:32:38.375Z,26.17
2022-08-19T07:35:43.050Z,26.05
2022-08-19T07:38:49.872Z,31.38
2022-08-19T07:41:53.321Z,24.67
2022-08-19T07:44:56.324Z,25.30
2022-08-19T07:47:59.918Z,28.10
2022-08-19T07:51:09.164Z,25.00
2022-08-19T07:54:12.555Z,30.45
2022-08-19T07:57:15.840Z,25.77
2022-08-19T08:00:23.146Z,24.80
2022-08-19T08:03:43.246Z,25.40
2022-08-19T08:07:05.421Z,26.85
2022-08-19T08:10:13.978Z,30.00
2022-08-19T08:13:24.138Z,33.15
2022-08-19T08:16:32.055Z,31.02
2022-08-19T08:19:35.476Z,26.33
2022-08-19T08:23:02.575Z,30.98
2022-08-19T08:26:05.709Z,25.70
2022-08-19T08:29:13.045Z,35.60
2022-08-19T08:32:16.570Z,27.83
2022-08-19T08:35:22.828Z,29.02
2022-08-19T08:38:28.214Z,24.20
2022-08-19T08:41:48.821Z,24.30
2022-08-19T08:45:00.409Z,26.40
2022-08-19T08:48:22.033Z,24.48
2022-08-19T08:51:35.378Z,25.80
2022-08-19T08:54:48.941Z,26.48
2022-08-19T08:58:03.743Z,27.27
2022-08-19T09:01:06.988Z,23.25
2022-08-19T09:04:10.352Z,25.35
2022-08-19T09:07:35.350Z,25.92
2022-08-19T09:10:46.219Z,26.23
2022-08-19T09:14:47.392Z,27.20
2022-08-19T09:17:42.916Z,26.55
2022-08-19T09:20:47.892Z,25.30
2022-08-19T09:23:51.086Z,26.77
2022-08-19T09:26:56.502Z,29.48
2022-08-19T09:30:01.222Z,30.15
2022-08-19T09:33:05.502Z,27.77
2022-08-19T09:36:12.878Z,28.08
2022-08-19T09:39:24.857Z,25.10
2022-08-19T09:42:50.313Z,26.38
2022-08-19T09:45:54.740Z,27.92
2022-08-19T09:49:03.010Z,26.17
2022-08-19T09:52:13.693Z,24.92
2022-08-19T09:55:16.990Z,25.83
2022-08-19T09:58:26.650Z,23.35
2022-08-19T10:01:32.713Z,26.38
2022-08-19T10:04:53.463Z,24.13
2022-08-19T10:07:56.893Z,23.30
2022-08-19T10:11:28.373Z,24.27
2022-08-19T10:14:26.657Z,22.92
2022-08-19T10:17:31.517Z,24.02
2022-08-19T10:20:37.574Z,25.27
2022-08-19T10:23:46.086Z,26.83
2022-08-19T10:26:57.247Z,23.42
2022-08-19T10:30:04.857Z,23.92
2022-08-19T10:33:14.953Z,22.15
2022-08-19T10:36:21.258Z,23.73
2022-08-19T10:39:24.304Z,20.80
2022-08-19T10:42:33.968Z,21.92
2022-08-19T10:45:38.263Z,24.30
2022-08-19T10:48:56.610Z,23.27
2022-08-19T10:52:18.802Z,21.83
2022-08-19T10:55:43.544Z,24.80
2022-08-19T10:58:46.518Z,21.35
2022-08-19T11:01:53.026Z,21.98
2022-08-19T11:05:01.836Z,21.45
2022-08-19T11:08:17.686Z,20.30
2022-08-19T11:11:26.535Z,20.77
2022-08-19T11:14:32.156Z,24.08
2022-08-19T11:17:41.593Z,22.08
2022-08-19T11:20:44.529Z,23.08
2022-08-19T11:23:49.764Z,22.92
2022-08-19T11:26:59.870Z,22.05
2022-08-19T11:30:04.526Z,21.50
2022-08-19T11:33:11.886Z,22.85
2022-08-19T11:36:15.244Z,22.13
2022-08-19T11:39:22.588Z,19.40
2022-08-19T11:42:42.910Z,21.65
2022-08-19T11:45:45.882Z,21.40
2022-08-19T11:48:51.782Z,20.77
2022-08-19T11:51:55.200Z,22.83
2022-08-19T11:54:58.168Z,21.40
2022-08-19T11:58:01.164Z,22.63
2022-08-19T12:01:08.253Z,21.65
2022-08-19T12:04:12.928Z,18.13
2022-08-19T12:07:16.065Z,19.25
2022-08-19T12:10:20.665Z,19.02
2022-08-19T12:13:26.402Z,21.10
2022-08-19T12:16:31.522Z,17.92
2022-08-19T12:19:40.703Z,16.17
2022-08-19T12:22:44.426Z,23.30
2022-08-19T12:25:51.088Z,18.73
2022-08-19T12:28:54.920Z,19.73
2022-08-19T12:32:02.088Z,16.08
2022-08-19T12:35:10.113Z,15.73
2022-08-19T12:38:15.525Z,15.43
2022-08-19T12:41:19.720Z,15.43
2022-08-19T12:44:29.607Z,17.23
2022-08-19T12:47:35.718Z,16.63
2022-08-19T12:50:43.969Z,15.80
2022-08-19T12:53:48.345Z,15.63
2022-08-19T12:56:51.296Z,15.05
2022-08-19T12:59:55.375Z,14.90
2022-08-19T13:02:58.342Z,14.55
2022-08-19T13:06:02.697Z,16.08
2022-08-19T13:09:06.394Z,14.23
2022-08-19T13:12:13.868Z,14.20
2022-08-19T13:15:23.798Z,15.48
2022-08-19T13:18:27.345Z,17.40
2022-08-19T13:21:31.756Z,15.85
2022-08-19T13:24:35.041Z,15.00
2022-08-19T13:27:39.053Z,14.85
2022-08-19T13:30:59.674Z,15.13
2022-08-19T13:34:03.202Z,14.85
2022-08-19T13:37:08.349Z,15.82
2022-08-19T13:40:16.998Z,17.80
2022-08-19T13:43:22.868Z,16.33
2022-08-19T13:46:28.260Z,16.08
2022-08-19T13:49:31.907Z,16.60
2022-08-19T13:52:36.193Z,16.17
2022-08-19T13:55:40.698Z,16.65
2022-08-19T13:58:44.367Z,16.40
2022-08-19T14:01:47.354Z,15.50
2022-08-19T14:04:50.374Z,16.05
2022-08-19T14:07:54.873Z,16.88
2022-08-19T14:10:58.002Z,15.30
2022-08-19T14:14:01.071Z,18.00
2022-08-19T14:17:04.136Z,15.93
2022-08-19T14:20:11.433Z,17.65
2022-08-19T14:23:22.549Z,18.05
2022-08-19T14:26:25.976Z,16.00
2022-08-19T14:29:29.856Z,16.35
2022-08-19T14:32:32.931Z,16.45
2022-08-19T14:35:36.716Z,16.55
2022-08-19T14:38:41.287Z,16.27
2022-08-19T14:41:44.316Z,16.88
2022-08-19T14:44:47.657Z,16.20
2022-08-19T14:47:50.666Z,15.10
2022-08-19T14:50:54.110Z,15.13
2022-08-19T14:53:58.868Z,14.98
2022-08-19T14:57:01.862Z,16.00
2022-08-19T15:00:06.997Z,15.63
2022-08-19T15:03:09.982Z,16.52
2022-08-19T15:06:13.278Z,14.18
2022-08-19T15:09:17.582Z,13.27
2022-08-19T15:12:22.169Z,13.88
2022-08-19T15:15:25.463Z,15.10
2022-08-19T15:18:28.525Z,15.93
2022-08-19T15:21:33.593Z,14.98
2022-08-19T15:24:48.017Z,14.45
2022-08-19T15:27:52.199Z,14.38
2022-08-19T15:30:55.558Z,14.00
2022-08-19T15:33:59.279Z,14.55
2022-08-19T15:37:04.511Z,12.35
2022-08-19T15:40:10.712Z,13.48
2022-08-19T15:43:13.739Z,14.00
2022-08-19T15:46:19.778Z,12.98
2022-08-19T15:49:22.859Z,13.50
2022-08-19T15:52:27.204Z,13.43
2022-08-19T15:55:35.176Z,13.90
2022-08-19T15:58:56.987Z,13.18
2022-08-19T16:02:17.324Z,12.68
2022-08-19T16:05:41.213Z,13.77
2022-08-19T16:08:48.908Z,13.20
2022-08-19T16:11:56.883Z,13.38
2022-08-19T16:15:00.268Z,12.70
2022-08-19T16:18:03.670Z,12.35
2022-08-19T16:21:08.103Z,12.43
2022-08-19T16:24:14.384Z,13.48
2022-08-19T16:27:18.787Z,13.63
2022-08-19T16:30:21.991Z,13.93
2022-08-19T16:33:24.952Z,13.80
2022-08-19T16:36:28.539Z,15.25
2022-08-19T16:39:32.080Z,15.10
2022-08-19T16:42:36.806Z,16.15
2022-08-19T16:45:40.018Z,13.65
2022-08-19T16:48:47.191Z,15.60
2022-08-19T16:51:50.394Z,16.65
2022-08-19T16:54:53.863Z,16.02
2022-08-19T16:57:58.122Z,16.13
2022-08-19T17:01:04.208Z,15.80
2022-08-19T17:04:07.443Z,15.38
2022-08-19T17:07:11.219Z,17.42
2022-08-19T17:10:14.546Z,16.30
2022-08-19T17:13:19.109Z,16.38
2022-08-19T17:16:25.970Z,17.23
2022-08-19T17:19:29.254Z,15.68
2022-08-19T17:22:32.432Z,16.90
2022-08-19T17:25:35.942Z,17.30
2022-08-19T17:28:40.968Z,16.17
2022-08-19T17:31:46.733Z,15.85
2022-08-19T17:34:49.918Z,15.15
2022-08-19T17:37:53.339Z,14.30
2022-08-19T17:41:01.513Z,15.75
2022-08-19T17:44:07.097Z,17.75
2022-08-19T17:47:10.977Z,16.45
2022-08-19T17:50:14.193Z,21.80
2022-08-19T17:53:17.907Z,19.98
2022-08-19T17:56:23.576Z,15.43
2022-08-19T17:59:30.108Z,14.95
2022-08-19T18:02:33.832Z,15.43
2022-08-19T18:05:44.705Z,15.82
2022-08-19T18:08:49.108Z,13.88
2022-08-19T18:11:54.671Z,15.30
2022-08-19T18:15:00.225Z,14.52
2022-08-19T18:18:03.540Z,14.75
2022-08-19T18:21:18.210Z,15.77
2022-08-19T18:24:21.197Z,14.90
2022-08-19T18:27:24.604Z,13.65
2022-08-19T18:30:34.091Z,14.98
2022-08-19T18:33:44.292Z,15.88
2022-08-19T18:36:53.967Z,17.85
2022-08-19T18:40:15.293Z,15.48
2022-08-19T18:43:36.484Z,12.35
2022-08-19T18:46:58.203Z,13.43
2022-08-19T18:50:08.081Z,12.00
2022-08-19T18:53:16.139Z,12.38
2022-08-19T18:56:23.846Z,14.20
2022-08-19T18:59:29.573Z,13.20
2022-08-19T19:02:39.416Z,14.00
2022-08-19T19:05:44.238Z,13.93
2022-08-19T19:08:48.258Z,12.57
2022-08-19T19:11:55.772Z,14.00
2022-08-19T19:14:58.950Z,11.60
2022-08-19T19:18:03.308Z,15.25
2022-08-19T19:21:07.650Z,12.45
2022-08-19T19:24:13.903Z,12.82
2022-08-19T19:27:20.429Z,12.90
2022-08-19T19:30:25.767Z,13.00
2022-08-19T19:33:30.078Z,12.70
2022-08-19T19:36:33.084Z,13.93
2022-08-19T19:39:46.679Z,13.70
2022-08-19T19:42:51.887Z,13.30
2022-08-19T19:45:55.175Z,15.43
2022-08-19T19:49:00.378Z,15.60
2022-08-19T19:52:03.750Z,12.98
2022-08-19T19:55:09.222Z,16.85
2022-08-19T19:58:12.294Z,13.75
2022-08-19T20:01:17.555Z,16.88
2022-08-19T20:04:29.051Z,15.90
2022-08-19T20:07:46.049Z,14.80
2022-08-19T20:10:49.054Z,16.02
2022-08-19T20:13:52.028Z,16.23
2022-08-19T20:16:57.033Z,15.68
2022-08-19T20:20:01.599Z,17.17
2022-08-19T20:23:04.658Z,17.85
2022-08-19T20:26:08.480Z,15.65
2022-08-19T20:29:39.639Z,15.93
2022-08-19T20:32:46.378Z,17.65
2022-08-19T20:35:50.703Z,19.20
2022-08-19T20:38:53.755Z,18.13
2022-08-19T20:41:57.159Z,17.40
2022-08-19T20:45:00.135Z,15.65
2022-08-19T20:48:04.313Z,18.45
2022-08-19T20:51:10.518Z,15.57
2022-08-19T20:54:14.326Z,20.10
2022-08-19T20:57:17.524Z,16.40
2022-08-19T21:00:20.774Z,17.05
2022-08-19T21:03:27.255Z,16.92
2022-08-19T21:06:31.540Z,16.77
2022-08-19T21:09:35.760Z,15.75
2022-08-19T21:12:40.629Z,18.77
2022-08-19T21:15:44.386Z,16.33
2022-08-19T21:18:47.783Z,16.05
2022-08-19T21:21:52.471Z,16.48
2022-08-19T21:24:55.468Z,15.32
2022-08-19T21:27:58.866Z,18.65
2022-08-19T21:31:02.490Z,17.58
2022-08-19T21:34:05.991Z,17.90
2022-08-19T21:37:19.002Z,12.85
2022-08-19T21:40:29.234Z,13.50
2022-08-19T21:43:32.546Z,14.50
2022-08-19T21:46:36.107Z,12.95
2022-08-19T21:49:39.180Z,13.43
2022-08-19T21:52:44.157Z,14.73
2022-08-19T21:55:52.795Z,13.45
2022-08-19T21:58:56.699Z,23.45
2022-08-19T22:02:15.855Z,17.38
2022-08-19T22:05:24.456Z,19.30
2022-08-19T22:08:29.757Z,19.63
2022-08-19T22:11:32.816Z,20.98
2022-08-19T22:14:36.036Z,17.45
2022-08-19T22:17:40.266Z,20.52
2022-08-19T22:20:45.330Z,16.55
2022-08-19T22:23:49.662Z,15.95
2022-08-19T22:26:52.668Z,16.65
2022-08-19T22:29:55.639Z,19.05
2022-08-19T22:33:01.232Z,16.80
2022-08-19T22:36:07.456Z,17.42
2022-08-19T22:39:11.860Z,17.83
2022-08-19T22:42:18.965Z,21.17
2022-08-19T22:45:22.582Z,21.05
2022-08-19T22:48:29.670Z,20.00
2022-08-19T22:51:46.854Z,23.30
2022-08-19T22:54:54.585Z,21.52
2022-08-19T22:57:59.176Z,20.75
2022-08-19T23:01:02.602Z,22.65
2022-08-19T23:04:06.023Z,23.98
2022-08-19T23:07:09.288Z,22.65
2022-08-19T23:10:13.937Z,24.13
2022-08-19T23:13:31.789Z,26.63
2022-08-19T23:16:35.640Z,27.70
2022-08-19T23:19:39.347Z,27.25
2022-08-19T23:22:44.042Z,22.98
2022-08-19T23:25:50.066Z,25.33
2022-08-19T23:29:10.787Z,25.85
2022-08-19T23:32:16.145Z,28.42
2022-08-19T23:35:19.730Z,28.67
2022-08-19T23:38:23.632Z,32.42
2022-08-19T23:41:28.505Z,28.10
2022-08-19T23:44:31.615Z,27.30
2022-08-19T23:47:34.839Z,29.98
2022-08-19T23:50:40.984Z,31.05
2022-08-19T23:53:44.946Z,26.58
2022-08-19T23:56:49.217Z,26.08
2022-08-19T23:59:52.189Z,28.48
